Shelby — WCV6157 — position and weather

sailwx.info

Track history (hours):
 
Tides and Currents Weather Stations Pressure Air Temp Water Temp Dewpoint Dewpoint Depression Visibility Wind Speed Wind Dir Waves Ship Positions

Shelby

Owner: WEEKS MARINE, INC., CRANFORD, NJ. More information available from US FCC via Universal Licensing System and Coast Guard Vessel Documentation Center.

Last reported at 2016-May-29 11:30 UTC. Time now 2016-May-30 05:03 UTC.
Position N 40°29' W 073°59'.

Length 22 m; draft 3.1 m.

Type: Tug. MMSI: 366902344.

Date/timePositionNaut miles runAvg speedWind from/ knotsBaromVisibWave heightAir tempDewpointWater temp
2016-May-29 11:30N 40°29' W 073°59'0 0.1
2016-May-29 09:23N 40°29' W 073°60'  
2016-May-27 04:25N 40°29' W 073°60'1 0.0
2016-May-26 08:34N 40°29' W 073°59'2 0.1
2016-May-25 13:09N 40°29' W 074°01'0 0.0
2016-May-25 12:33N 40°29' W 074°01'0 0.0
2016-May-25 02:09N 40°29' W 074°01'0 0.0
2016-May-24 10:23N 40°29' W 074°01'7 0.4
2016-May-23 15:32N 40°35' W 074°02'6 5.7
2016-May-23 14:33N 40°41' W 074°05'7 0.5
2016-May-23 02:10N 40°34' W 074°02'5 8.6
2016-May-23 01:33N 40°39' W 074°05'1 1.0
2016-May-23 00:32N 40°39' W 074°07'2 2.3
2016-May-22 23:34N 40°40' W 074°04'0 0.2
2016-May-22 22:32N 40°41' W 074°05'0 0.0
2016-May-22 21:32N 40°41' W 074°05'0 0.0
2016-May-22 20:20N 40°41' W 074°05'0 0.0
2016-May-22 19:33N 40°41' W 074°05'0 0.0
2016-May-22 18:33N 40°41' W 074°05'2 1.8
2016-May-22 17:33N 40°39' W 074°03'10 0.4
2016-May-21 17:27N 40°29' W 074°01'1 0.8
2016-May-21 16:30N 40°29' W 073°60'0 0.0
2016-May-21 15:33N 40°29' W 073°60'0 0.0
2016-May-21 14:17N 40°29' W 073°60'0 0.0
2016-May-21 13:31N 40°29' W 073°60'0 0.0
2016-May-21 12:33N 40°29' W 073°60'0 0.0
2016-May-21 11:33N 40°29' W 073°60'0 0.0
2016-May-21 09:30N 40°29' W 073°60'0 0.0
2016-May-21 06:27N 40°29' W 073°60'0 0.0
2016-May-21 05:33N 40°29' W 073°60'3 0.2
2016-May-20 15:24N 40°31' W 074°03'7 8.4
2016-May-20 14:33N 40°38' W 074°03'7 7.2
2016-May-20 13:33N 40°45' W 074°01'0 0.1
2016-May-20 12:33N 40°45' W 074°01'0 0.0
2016-May-20 11:34N 40°45' W 074°01'1 0.8
2016-May-20 10:34N 40°44' W 074°01'9 8.3
2016-May-20 09:30N 40°35' W 074°02'7 1.6
2016-May-20 05:27N 40°29' W 073°60'0 0.0
2016-May-20 03:29N 40°29' W 073°60'0 0.0
2016-May-19 20:05N 40°29' W 073°60'0 0.0
2016-May-19 19:29N 40°29' W 073°60'0 0.0
2016-May-19 18:21N 40°29' W 073°60'0 0.1
2016-May-19 14:34N 40°29' W 073°59'0 0.2
2016-May-19 13:09N 40°29' W 073°60'0 0.0
2016-May-19 12:33N 40°29' W 073°60'  
Track history (hours):
 
Tides and Currents Weather Stations Pressure Air Temp Water Temp Dewpoint Dewpoint Depression Visibility Wind Speed Wind Dir Waves Ship Positions

Shelby

Owner: WEEKS MARINE, INC., CRANFORD, NJ. More information available from US FCC via Universal Licensing System and Coast Guard Vessel Documentation Center.

Last reported at 2016-May-29 11:30 UTC. Time now 2016-May-30 05:03 UTC.
Position N 40°29' W 073°59'.

Length 22 m; draft 3.1 m.

Type: Tug. MMSI: 366902344.

Date/timePositionNaut miles runAvg speedWind from/ knotsBaromVisibWave heightAir tempDewpointWater temp
2016-May-29 11:30N 40°29' W 073°59'0 0.1
2016-May-29 09:23N 40°29' W 073°60'  
2016-May-27 04:25N 40°29' W 073°60'1 0.0
2016-May-26 08:34N 40°29' W 073°59'2 0.1
2016-May-25 13:09N 40°29' W 074°01'0 0.0
2016-May-25 12:33N 40°29' W 074°01'0 0.0
2016-May-25 02:09N 40°29' W 074°01'0 0.0
2016-May-24 10:23N 40°29' W 074°01'7 0.4
2016-May-23 15:32N 40°35' W 074°02'6 5.7
2016-May-23 14:33N 40°41' W 074°05'7 0.5
2016-May-23 02:10N 40°34' W 074°02'5 8.6
2016-May-23 01:33N 40°39' W 074°05'1 1.0
2016-May-23 00:32N 40°39' W 074°07'2 2.3
2016-May-22 23:34N 40°40' W 074°04'0 0.2
2016-May-22 22:32N 40°41' W 074°05'0 0.0
2016-May-22 21:32N 40°41' W 074°05'0 0.0
2016-May-22 20:20N 40°41' W 074°05'0 0.0
2016-May-22 19:33N 40°41' W 074°05'0 0.0
2016-May-22 18:33N 40°41' W 074°05'2 1.8
2016-May-22 17:33N 40°39' W 074°03'10 0.4
2016-May-21 17:27N 40°29' W 074°01'1 0.8
2016-May-21 16:30N 40°29' W 073°60'0 0.0
2016-May-21 15:33N 40°29' W 073°60'0 0.0
2016-May-21 14:17N 40°29' W 073°60'0 0.0
2016-May-21 13:31N 40°29' W 073°60'0 0.0
2016-May-21 12:33N 40°29' W 073°60'0 0.0
2016-May-21 11:33N 40°29' W 073°60'0 0.0
2016-May-21 09:30N 40°29' W 073°60'0 0.0
2016-May-21 06:27N 40°29' W 073°60'0 0.0
2016-May-21 05:33N 40°29' W 073°60'3 0.2
2016-May-20 15:24N 40°31' W 074°03'7 8.4
2016-May-20 14:33N 40°38' W 074°03'7 7.2
2016-May-20 13:33N 40°45' W 074°01'0 0.1
2016-May-20 12:33N 40°45' W 074°01'0 0.0
2016-May-20 11:34N 40°45' W 074°01'1 0.8
2016-May-20 10:34N 40°44' W 074°01'9 8.3
2016-May-20 09:30N 40°35' W 074°02'7 1.6
2016-May-20 05:27N 40°29' W 073°60'0 0.0
2016-May-20 03:29N 40°29' W 073°60'0 0.0
2016-May-19 20:05N 40°29' W 073°60'0 0.0
2016-May-19 19:29N 40°29' W 073°60'0 0.0
2016-May-19 18:21N 40°29' W 073°60'0 0.1
2016-May-19 14:34N 40°29' W 073°59'0 0.2
2016-May-19 13:09N 40°29' W 073°60'0 0.0
2016-May-19 12:33N 40°29' W 073°60'  

Dump ship's entire track history